createdAt,value
2024-02-21T00:00:19.275Z,10.20
2024-02-21T00:02:46.966Z,10.60
2024-02-21T00:05:14.882Z,8.90
2024-02-21T00:07:42.660Z,10.90
2024-02-21T00:10:10.744Z,10.60
2024-02-21T00:12:38.764Z,10.10
2024-02-21T00:15:07.798Z,14.40
2024-02-21T00:17:35.369Z,12.20
2024-02-21T00:20:03.353Z,11.60
2024-02-21T00:22:32.609Z,14.30
2024-02-21T00:25:00.710Z,19.10
2024-02-21T00:27:28.399Z,10.50
2024-02-21T00:29:55.980Z,11.40
2024-02-21T00:32:23.688Z,11.00
2024-02-21T00:34:51.873Z,12.70
2024-02-21T00:37:19.587Z,13.40
2024-02-21T00:39:47.193Z,9.80
2024-02-21T00:42:14.898Z,12.00
2024-02-21T00:44:42.588Z,11.00
2024-02-21T00:47:11.447Z,11.90
2024-02-21T00:49:39.182Z,10.90
2024-02-21T00:52:06.764Z,14.30
2024-02-21T00:54:44.391Z,11.70
2024-02-21T00:57:18.217Z,14.10
2024-02-21T00:59:45.880Z,13.20
2024-02-21T01:02:13.621Z,10.70
2024-02-21T02:49:02.932Z,16.00
2024-02-21T02:52:52.358Z,17.20
2024-02-21T02:56:34.900Z,14.80
2024-02-21T03:00:11.618Z,13.90
2024-02-21T03:03:54.316Z,15.70
2024-02-21T03:07:43.235Z,16.20
2024-02-21T03:11:32.289Z,16.30
2024-02-21T03:15:20.753Z,18.70
2024-02-21T03:19:09.852Z,15.60
2024-02-21T03:22:59.081Z,16.60
2024-02-21T03:26:48.005Z,18.70
2024-02-21T03:30:30.814Z,17.60
2024-02-21T03:34:13.676Z,19.70
2024-02-21T03:37:56.212Z,15.20
2024-02-21T03:41:39.083Z,16.00
2024-02-21T03:45:21.847Z,15.80
2024-02-21T03:49:04.904Z,14.20
2024-02-21T03:52:41.771Z,17.40
2024-02-21T03:56:18.387Z,15.10
2024-02-21T04:00:00.812Z,17.90
2024-02-21T04:03:43.497Z,20.00
2024-02-21T04:07:26.632Z,17.30
2024-02-21T04:11:09.911Z,17.10
2024-02-21T04:14:52.717Z,31.40
2024-02-21T04:18:35.261Z,18.20
2024-02-21T04:22:18.306Z,20.10
2024-02-21T04:26:01.374Z,23.40
2024-02-21T04:29:44.400Z,19.00
2024-02-21T04:33:21.166Z,13.80
2024-02-21T04:37:03.918Z,17.90
2024-02-21T04:40:46.682Z,20.00
2024-02-21T04:44:29.635Z,26.80
2024-02-21T04:48:12.414Z,24.80
2024-02-21T04:51:55.124Z,21.70
2024-02-21T04:55:38.211Z,22.00
2024-02-21T04:59:21.235Z,19.40
2024-02-21T05:03:03.843Z,20.20
2024-02-21T05:06:46.862Z,14.90
2024-02-21T05:10:23.596Z,21.60
2024-02-21T05:14:06.413Z,23.80
2024-02-21T05:17:49.855Z,19.50
2024-02-21T05:21:32.599Z,22.20
2024-02-21T05:25:15.264Z,19.90
2024-02-21T05:28:58.401Z,22.60
2024-02-21T05:32:41.572Z,20.30
2024-02-21T05:36:24.460Z,19.70
2024-02-21T05:40:07.488Z,21.20
2024-02-21T05:43:44.287Z,18.50
2024-02-21T05:47:27.103Z,19.50
2024-02-21T05:51:10.071Z,18.20
2024-02-21T05:54:52.642Z,18.00
2024-02-21T05:58:35.209Z,18.00
2024-02-21T06:02:18.094Z,17.80
2024-02-21T06:06:00.961Z,18.00
2024-02-21T06:09:43.619Z,17.50
2024-02-21T06:13:26.393Z,18.40
2024-02-21T06:17:03.049Z,17.50
2024-02-21T06:20:39.741Z,20.00
2024-02-21T06:24:22.343Z,20.90
2024-02-21T06:28:05.032Z,18.60
2024-02-21T06:31:48.227Z,18.30
2024-02-21T06:35:31.104Z,19.10
2024-02-21T06:39:14.190Z,19.10
2024-02-21T06:42:57.035Z,18.20
2024-02-21T06:46:15.083Z,20.30
2024-02-21T06:48:46.418Z,20.30
2024-02-21T06:51:21.549Z,19.80
2024-02-21T06:53:49.656Z,19.50
2024-02-21T06:56:30.542Z,17.70
2024-02-21T06:58:58.682Z,18.60
2024-02-21T07:01:27.044Z,20.20
2024-02-21T07:03:55.152Z,18.90
2024-02-21T07:06:23.926Z,21.40
2024-02-21T07:08:51.874Z,18.90
2024-02-21T07:11:20.156Z,17.80
2024-02-21T07:13:50.873Z,20.50
2024-02-21T07:16:22.498Z,20.10
2024-02-21T07:18:54.476Z,20.10
2024-02-21T07:21:26.442Z,18.40
2024-02-21T07:23:58.470Z,21.20
2024-02-21T07:26:30.661Z,19.60
2024-02-21T07:29:03.102Z,18.60
2024-02-21T07:31:43.053Z,21.20
2024-02-21T07:34:17.233Z,20.20
2024-02-21T07:36:50.493Z,18.60
2024-02-21T07:39:22.514Z,18.70
2024-02-21T07:41:54.527Z,19.80
2024-02-21T07:44:26.897Z,18.50
2024-02-21T07:49:32.636Z,29.60
2024-02-21T07:52:04.789Z,22.30
2024-02-21T07:54:38.757Z,25.70
2024-02-21T07:57:06.734Z,23.40
2024-02-21T07:59:34.611Z,21.40
2024-02-21T08:02:03.811Z,21.80
2024-02-21T08:04:31.929Z,22.70
2024-02-21T08:07:05.607Z,21.60
2024-02-21T08:09:39.340Z,20.40
2024-02-21T08:12:11.524Z,23.40
2024-02-21T08:14:45.459Z,20.70
2024-02-21T08:17:16.366Z,22.80
2024-02-21T08:19:50.932Z,20.70
2024-02-21T08:22:24.104Z,22.60
2024-02-21T08:24:53.931Z,24.50
2024-02-21T08:27:25.515Z,24.00
2024-02-21T08:29:57.606Z,29.30
2024-02-21T08:32:30.315Z,20.00
2024-02-21T08:35:02.763Z,24.20
2024-02-21T08:37:34.554Z,34.30
2024-02-21T08:40:10.494Z,22.30
2024-02-21T08:42:44.890Z,21.60
2024-02-21T08:45:17.765Z,21.90
2024-02-21T08:47:51.881Z,23.30
2024-02-21T08:50:27.452Z,29.10
2024-02-21T08:53:03.188Z,21.60
2024-02-21T08:55:31.349Z,22.20
2024-02-21T08:57:59.319Z,24.00
2024-02-21T09:00:29.045Z,22.60
2024-02-21T09:02:57.535Z,26.40
2024-02-21T09:05:32.402Z,25.80
2024-02-21T09:08:00.749Z,27.50
2024-02-21T09:10:28.867Z,33.00
2024-02-21T09:12:59.952Z,48.40
2024-02-21T09:15:33.638Z,36.80
2024-02-21T09:21:08.007Z,52.90
2024-02-21T09:23:36.034Z,20.60
2024-02-21T09:26:05.838Z,21.10
2024-02-21T09:28:36.279Z,19.70
2024-02-21T09:31:04.388Z,19.20
2024-02-21T09:33:33.229Z,19.50
2024-02-21T09:36:07.843Z,21.50
2024-02-21T09:38:35.602Z,20.10
2024-02-21T09:41:27.154Z,20.30
2024-02-21T09:43:56.126Z,18.90
2024-02-21T09:46:30.794Z,18.60
2024-02-21T09:49:30.104Z,16.60
2024-02-21T09:51:58.404Z,17.50
2024-02-21T09:54:26.437Z,18.60
2024-02-21T09:56:54.223Z,19.50
2024-02-21T09:59:22.355Z,17.30
2024-02-21T10:01:51.829Z,19.50
2024-02-21T10:04:23.830Z,18.70
2024-02-21T10:07:00.149Z,16.80
2024-02-21T10:09:31.957Z,17.70
2024-02-21T10:12:14.356Z,19.40
2024-02-21T10:14:45.934Z,17.90
2024-02-21T10:17:21.811Z,18.90
2024-02-21T10:19:53.786Z,19.70
2024-02-21T10:22:27.584Z,20.80
2024-02-21T10:25:08.611Z,19.10
2024-02-21T10:27:37.191Z,17.60
2024-02-21T10:30:15.182Z,20.90
2024-02-21T10:33:01.365Z,18.70
2024-02-21T10:35:30.959Z,20.00
2024-02-21T10:37:59.750Z,18.20
2024-02-21T10:40:30.987Z,19.70
2024-02-21T10:43:02.285Z,18.00
2024-02-21T10:45:36.867Z,19.00
2024-02-21T10:48:26.443Z,20.70
2024-02-21T10:51:15.949Z,20.10
2024-02-21T10:54:32.874Z,22.20
2024-02-21T10:57:12.940Z,21.20
2024-02-21T10:59:47.333Z,22.70
2024-02-21T11:02:21.710Z,20.20
2024-02-21T11:04:55.924Z,20.90
2024-02-21T11:07:30.710Z,23.10
2024-02-21T11:10:06.433Z,20.80
2024-02-21T11:12:40.498Z,23.40
2024-02-21T11:15:14.537Z,24.60
2024-02-21T11:18:01.147Z,21.90
2024-02-21T11:20:36.915Z,22.20
2024-02-21T11:23:12.868Z,21.60
2024-02-21T11:25:47.473Z,24.40
2024-02-21T11:28:27.041Z,21.60
2024-02-21T11:31:16.942Z,21.70
2024-02-21T11:33:50.882Z,21.20
2024-02-21T11:36:26.335Z,21.30
2024-02-21T11:39:11.069Z,20.30
2024-02-21T11:41:45.015Z,20.30
2024-02-21T11:44:18.953Z,21.10
2024-02-21T11:46:53.011Z,20.50
2024-02-21T11:49:28.331Z,21.30
2024-02-21T11:52:06.296Z,23.70
2024-02-21T11:54:40.369Z,22.10
2024-02-21T11:57:14.210Z,22.30
2024-02-21T11:59:48.356Z,24.10
2024-02-21T12:02:22.301Z,19.40
2024-02-21T12:04:56.570Z,23.20
2024-02-21T12:07:30.942Z,25.30
2024-02-21T12:10:05.058Z,19.40
2024-02-21T12:12:40.414Z,21.40
2024-02-21T12:15:14.529Z,24.70
2024-02-21T12:17:48.730Z,21.50
2024-02-21T12:20:22.880Z,22.40
2024-02-21T12:22:56.943Z,22.50
2024-02-21T12:25:31.153Z,23.30
2024-02-21T12:28:05.262Z,24.60
2024-02-21T12:30:41.370Z,22.70
2024-02-21T12:33:18.140Z,23.40
2024-02-21T12:35:52.341Z,22.10
2024-02-21T12:38:26.349Z,22.30
2024-02-21T12:41:01.962Z,23.70
2024-02-21T12:43:35.979Z,24.30
2024-02-21T12:46:09.874Z,28.70
2024-02-21T12:48:43.718Z,22.50
2024-02-21T12:51:22.122Z,27.00
2024-02-21T12:53:56.289Z,28.30
2024-02-21T12:56:31.317Z,24.20
2024-02-21T12:59:05.290Z,23.50
2024-02-21T13:01:45.415Z,23.90
2024-02-21T13:04:26.372Z,27.70
2024-02-21T13:07:07.844Z,25.00
2024-02-21T13:09:48.270Z,26.20
2024-02-21T13:12:29.044Z,28.30
2024-02-21T13:15:11.419Z,27.70
2024-02-21T13:17:52.190Z,28.10
2024-02-21T13:20:31.651Z,26.40
2024-02-21T13:23:05.951Z,26.20
2024-02-21T13:25:40.020Z,26.70
2024-02-21T13:28:16.490Z,25.40
2024-02-21T13:30:50.666Z,42.60
2024-02-21T13:33:24.557Z,30.60
2024-02-21T13:35:58.635Z,27.30
2024-02-21T13:38:32.445Z,28.70
2024-02-21T13:41:07.693Z,24.50
2024-02-21T13:43:41.830Z,29.20
2024-02-21T13:46:22.874Z,63.00
2024-02-21T13:49:10.272Z,44.50
2024-02-21T13:51:50.388Z,50.40
2024-02-21T13:54:30.379Z,35.10
2024-02-21T13:57:10.388Z,28.40
2024-02-21T13:59:50.504Z,28.40
2024-02-21T14:02:30.858Z,26.40
2024-02-21T14:05:11.172Z,27.70
2024-02-21T14:07:51.318Z,26.80
2024-02-21T14:10:31.482Z,27.90
2024-02-21T14:13:12.556Z,29.70
2024-02-21T14:15:52.546Z,28.00
2024-02-21T14:18:32.482Z,28.20
2024-02-21T14:21:12.579Z,29.50
2024-02-21T14:23:54.051Z,29.60
2024-02-21T14:26:34.047Z,25.90
2024-02-21T14:29:14.564Z,28.40
2024-02-21T14:31:54.672Z,27.10
2024-02-21T14:34:34.901Z,28.10
2024-02-21T14:37:15.125Z,31.00
2024-02-21T14:39:55.203Z,27.60
2024-02-21T14:42:35.603Z,28.70
2024-02-21T14:45:16.183Z,27.00
2024-02-21T14:47:56.785Z,27.90
2024-02-21T14:50:37.536Z,26.60
2024-02-21T14:53:18.506Z,30.50
2024-02-21T14:55:59.473Z,28.30
2024-02-21T14:58:40.352Z,27.20
2024-02-21T15:01:20.548Z,31.10
2024-02-21T15:04:00.766Z,26.60
2024-02-21T15:06:41.061Z,31.30
2024-02-21T15:09:21.065Z,31.80
2024-02-21T15:12:01.614Z,27.30
2024-02-21T15:14:41.542Z,28.20
2024-02-21T15:17:21.784Z,27.00
2024-02-21T15:20:02.878Z,29.40
2024-02-21T15:22:44.086Z,27.60
2024-02-21T15:25:24.283Z,28.50
2024-02-21T15:28:05.932Z,29.10
2024-02-21T15:30:45.931Z,27.80
2024-02-21T15:33:27.508Z,27.50
2024-02-21T15:36:07.772Z,27.20
2024-02-21T15:38:47.841Z,27.10
2024-02-21T15:41:28.065Z,27.60
2024-02-21T15:44:08.587Z,28.80
2024-02-21T15:46:48.783Z,29.20
2024-02-21T15:49:28.998Z,29.70
2024-02-21T15:52:09.068Z,29.30
2024-02-21T15:54:49.234Z,31.40
2024-02-21T15:57:29.398Z,32.80
2024-02-21T16:00:14.332Z,29.20
2024-02-21T16:02:54.456Z,30.70
2024-02-21T16:05:34.755Z,28.30
2024-02-21T16:08:15.562Z,30.90
2024-02-21T16:10:57.719Z,33.00
2024-02-21T16:13:37.884Z,29.00
2024-02-21T16:16:17.880Z,36.30
2024-02-21T16:18:57.928Z,30.30
2024-02-21T16:21:38.397Z,29.60
2024-02-21T16:24:18.347Z,30.30
2024-02-21T16:26:58.559Z,31.40
2024-02-21T16:29:40.675Z,31.00
2024-02-21T16:32:20.631Z,28.40
2024-02-21T16:35:01.614Z,31.90
2024-02-21T16:37:42.105Z,30.30
2024-02-21T16:40:22.217Z,27.90
2024-02-21T16:43:04.190Z,29.40
2024-02-21T16:45:44.556Z,32.10
2024-02-21T16:48:24.604Z,28.50
2024-02-21T16:51:06.280Z,27.20
2024-02-21T16:53:46.396Z,29.00
2024-02-21T16:56:26.562Z,25.50
2024-02-21T16:59:06.689Z,27.10
2024-02-21T17:01:47.960Z,29.50
2024-02-21T17:04:28.256Z,29.10
2024-02-21T17:07:08.334Z,29.80
2024-02-21T17:09:48.543Z,32.30
2024-02-21T17:12:29.517Z,34.30
2024-02-21T17:15:12.936Z,31.70
2024-02-21T17:17:53.096Z,32.00
2024-02-21T17:20:33.363Z,29.50
2024-02-21T17:23:14.275Z,29.30
2024-02-21T17:25:54.426Z,31.60
2024-02-21T17:28:36.293Z,31.90
2024-02-21T17:31:18.450Z,33.60
2024-02-21T17:33:58.464Z,33.40
2024-02-21T17:36:38.540Z,32.00
2024-02-21T17:39:19.836Z,31.10
2024-02-21T17:42:00.281Z,32.40
2024-02-21T17:44:44.023Z,32.30
2024-02-21T17:47:23.896Z,32.20
2024-02-21T17:50:04.139Z,31.90
2024-02-21T17:52:44.154Z,33.60
2024-02-21T17:55:24.422Z,32.10
2024-02-21T17:58:04.464Z,32.00
2024-02-21T18:00:46.309Z,29.70
2024-02-21T18:03:30.420Z,34.50
2024-02-21T18:06:10.994Z,31.40
2024-02-21T18:08:53.028Z,34.80
2024-02-21T18:11:33.114Z,34.80
2024-02-21T18:14:13.246Z,33.50
2024-02-21T18:16:53.597Z,33.80
2024-02-21T18:19:33.719Z,34.70
2024-02-21T18:22:13.883Z,33.00
2024-02-21T18:24:53.913Z,32.30
2024-02-21T18:27:33.939Z,30.80
2024-02-21T18:30:14.507Z,30.30
2024-02-21T18:32:55.293Z,31.90
2024-02-21T18:35:35.331Z,30.60
2024-02-21T18:38:15.414Z,30.50
2024-02-21T18:40:55.517Z,35.80
2024-02-21T18:43:35.649Z,32.00
2024-02-21T18:46:37.813Z,30.40
2024-02-21T18:50:14.001Z,32.50
2024-02-21T18:53:51.055Z,31.60
2024-02-21T18:57:27.775Z,30.10
2024-02-21T19:01:04.486Z,31.60
2024-02-21T19:04:35.266Z,34.00
2024-02-21T19:08:18.550Z,33.60
2024-02-21T19:12:01.503Z,34.60
2024-02-21T19:15:38.799Z,34.80
2024-02-21T19:19:09.971Z,34.40
2024-02-21T19:22:38.252Z,32.50
2024-02-21T19:26:03.372Z,29.60
2024-02-21T19:29:33.837Z,33.50
2024-02-21T19:33:15.380Z,32.00
2024-02-21T19:36:56.732Z,31.00
2024-02-21T19:40:37.866Z,31.10
2024-02-21T19:44:19.000Z,30.40
2024-02-21T19:48:00.244Z,34.80
2024-02-21T19:51:41.642Z,33.80
2024-02-21T19:55:22.700Z,31.40
2024-02-21T19:59:03.926Z,32.70
2024-02-21T20:02:44.866Z,35.00
2024-02-21T20:06:26.059Z,33.30
2024-02-21T20:10:07.649Z,32.90
2024-02-21T20:13:48.976Z,33.10
2024-02-21T20:17:30.793Z,33.20
2024-02-21T20:21:11.530Z,33.60
2024-02-21T20:24:52.976Z,35.70
2024-02-21T20:28:34.004Z,36.20
2024-02-21T20:32:15.083Z,35.90
2024-02-21T20:35:56.470Z,32.80
2024-02-21T20:39:37.819Z,35.40
2024-02-21T20:43:19.549Z,33.50
2024-02-21T20:47:02.466Z,34.50
2024-02-21T20:50:46.606Z,33.80
2024-02-21T20:54:32.510Z,36.50
2024-02-21T20:58:15.464Z,34.00
2024-02-21T21:02:03.117Z,36.70
2024-02-21T21:05:47.290Z,36.30
2024-02-21T21:09:30.064Z,27.30
2024-02-21T21:13:23.316Z,35.60
2024-02-21T21:17:13.365Z,35.30
2024-02-21T21:20:56.165Z,36.50
2024-02-21T21:24:39.114Z,37.40
2024-02-21T21:28:22.191Z,32.30
2024-02-21T21:32:05.297Z,25.40
2024-02-21T21:35:48.005Z,32.90
2024-02-21T21:39:31.097Z,31.90
2024-02-21T21:43:14.065Z,32.80
2024-02-21T21:46:56.771Z,63.30
2024-02-21T21:50:39.521Z,34.40
2024-02-21T21:54:22.569Z,33.40
2024-02-21T21:58:05.172Z,33.40
2024-02-21T22:01:48.263Z,35.50
2024-02-21T22:05:31.312Z,32.10
2024-02-21T22:09:14.256Z,31.70
2024-02-21T22:12:56.984Z,36.70
2024-02-21T22:16:40.253Z,41.30
2024-02-21T22:20:23.325Z,40.80
2024-02-21T22:24:06.260Z,28.40
2024-02-21T22:27:49.238Z,51.50
2024-02-21T22:31:32.039Z,44.00
2024-02-21T22:35:14.837Z,39.70
2024-02-21T22:38:57.856Z,38.60
2024-02-21T22:42:40.872Z,45.40
2024-02-21T22:46:23.563Z,44.40
2024-02-21T22:50:00.420Z,36.90
2024-02-21T22:53:36.857Z,36.10
2024-02-21T22:57:13.697Z,34.60
2024-02-21T23:00:56.511Z,39.20
2024-02-21T23:04:39.150Z,39.10
2024-02-21T23:08:21.905Z,35.70
2024-02-21T23:12:04.361Z,36.00
2024-02-21T23:15:48.950Z,34.20
2024-02-21T23:19:32.815Z,35.90
2024-02-21T23:23:15.821Z,33.50
2024-02-21T23:26:58.441Z,36.80
2024-02-21T23:30:41.154Z,35.00
2024-02-21T23:34:17.744Z,33.30
2024-02-21T23:38:00.821Z,35.70
2024-02-21T23:41:37.516Z,35.80
2024-02-21T23:45:20.345Z,33.90
2024-02-21T23:49:03.217Z,36.60
2024-02-21T23:52:40.307Z,37.00
2024-02-21T23:56:22.769Z,36.80
2024-02-21T23:59:59.544Z,34.00
